メインページ
METAR-TAF:

METAR-TAF

空港 :

ナシュア, ニューハンプシャー州, アメリカ合衆国

緯度: 42-47N, 経度: 071-31W, 海抜: 61m

現時点の気象観測

当レポートは31分前の05:14(UTC)に作成
北東の風 7kt、最大17ktの突風を伴う
気温 6°C
湿度 100%
気圧 1015 hPa
視程: 16.1km
高度1000ftの千切れ雲あり
高度1500ftの曇り
小雨

METAR: KASH 040514Z AUTO 04007G17KT 10SM -RA BKN010 OVC015 06/06 A2996 RMK AO2 CIG 007V012 P0000

時間: 01:45 (05:45 UTC)


TAF: 見つかりません

4,000以上の空港の気象観測と天気予報(METAR報とTAF報)

利用可能な観測所は地図上に黄色い丸と赤い丸で示す。

丸の上にカーソルを重ねると観測所名を参照できる。

次にクリックすると気象観測と天気予報を参照できる。

マップの切り替え:黒色「×」印の緑ボタンをクリックして拡大、「-」印の緑ボタンをクリックして縮小、緑色の三角印をクリックして隣りの地図に切り替え


METAR-TAF: